Volgo-balt 229 — UHZF — position and weather

sailwx.info

Track history (hours):
 
Tides and Currents Weather Stations Pressure Air Temp Water Temp Dewpoint Dewpoint Depression Visibility Wind Speed Wind Dir Waves Ship Positions

Volgo-balt 229

Last reported at 2015-Mar-31 06:23 UTC. Time now 2015-Mar-31 06:46 UTC.
Position N 54°07' E 012°05'.

Length 113 m; draft 3.9 m.

Type: Ship. MMSI: 273336300.

Date/timePositionNaut miles runAvg speedWind from/ knotsBaromVisibWave heightAir tempDewpointWater temp
2015-Mar-31 06:23N 54°07' E 012°05'0 0.0
2015-Mar-31 05:31N 54°07' E 012°05'0 0.0
2015-Mar-31 04:13N 54°07' E 012°05'0 0.0
2015-Mar-31 03:10N 54°07' E 012°05'0 0.0
2015-Mar-31 02:13N 54°07' E 012°05'0 0.0
2015-Mar-31 00:28N 54°07' E 012°05'0 0.0
2015-Mar-30 23:28N 54°07' E 012°05'0 0.0
2015-Mar-30 22:28N 54°07' E 012°05'0 0.0
2015-Mar-30 20:31N 54°07' E 012°05'0 0.0
2015-Mar-30 19:28N 54°07' E 012°05'0 0.0
2015-Mar-30 18:31N 54°07' E 012°05'0 0.0
2015-Mar-30 17:22N 54°07' E 012°05'0 0.0
2015-Mar-30 16:28N 54°07' E 012°05'0 0.0
2015-Mar-30 14:31N 54°07' E 012°05'0 0.0
2015-Mar-30 13:28N 54°07' E 012°05'0 0.0
2015-Mar-30 12:28N 54°07' E 012°05'0 0.0
2015-Mar-30 11:28N 54°07' E 012°05'0 0.0
2015-Mar-30 10:07N 54°07' E 012°05'0 0.0
2015-Mar-30 09:14N 54°07' E 012°05'  
2015-Mar-26 15:18N 54°60' E 015°43'6 7.5
2015-Mar-26 14:33N 55°01' E 015°52'73 7.3
2015-Mar-26 04:32N 55°19' E 017°57'21 7.2
2015-Mar-26 01:33N 55°24' E 018°34'9 7.3
2015-Mar-26 00:17N 55°26' E 018°49'6 7.0
2015-Mar-25 23:30N 55°27' E 018°59'  
2015-Mar-23 11:27N 55°04' E 018°28'159 8.0
2015-Mar-22 15:31N 54°40' E 013°54'7 7.8
2015-Mar-22 14:33N 54°43' E 013°42'8 7.6
2015-Mar-22 13:33N 54°44' E 013°29'8 7.7
2015-Mar-22 12:33N 54°43' E 013°16'24 8.1
2015-Mar-22 09:33N 54°37' E 012°35'12 8.8
2015-Mar-22 08:12N 54°31' E 012°17'6 8.9
2015-Mar-22 07:33N 54°26' E 012°13'8 7.8
2015-Mar-22 06:33N 54°19' E 012°07'8 7.8
2015-Mar-22 05:33N 54°11' E 012°05'4 3.9
2015-Mar-22 04:31N 54°07' E 012°05'0 0.0
2015-Mar-22 03:31N 54°07' E 012°05'0 0.0
2015-Mar-22 02:31N 54°07' E 012°05'0 0.0
2015-Mar-22 01:31N 54°07' E 012°05'0 0.0
2015-Mar-22 00:33N 54°07' E 012°05'0 0.0
2015-Mar-21 23:30N 54°07' E 012°05'0 0.0
2015-Mar-21 22:33N 54°07' E 012°05'0 0.0
2015-Mar-21 21:33N 54°07' E 012°05'0 0.0
2015-Mar-21 20:18N 54°07' E 012°05'0 0.0
2015-Mar-21 18:15N 54°07' E 012°05'0 0.0
2015-Mar-21 17:33N 54°07' E 012°05'0 0.0
2015-Mar-21 16:33N 54°07' E 012°05'0 0.0
2015-Mar-21 15:33N 54°07' E 012°05'0 0.0
2015-Mar-21 14:33N 54°07' E 012°05'0 0.0
2015-Mar-21 13:30N 54°07' E 012°05'0 0.0
2015-Mar-21 12:06N 54°07' E 012°05'0 0.0
2015-Mar-21 11:33N 54°07' E 012°05'0 0.0
2015-Mar-21 10:33N 54°07' E 012°05'0 0.0
2015-Mar-21 09:33N 54°07' E 012°05'0 0.0
2015-Mar-21 08:33N 54°07' E 012°05'4 3.9
2015-Mar-21 07:30N 54°11' E 012°05'5 5.4
2015-Mar-21 06:32N 54°16' E 012°01'  
Track history (hours):
 
Tides and Currents Weather Stations Pressure Air Temp Water Temp Dewpoint Dewpoint Depression Visibility Wind Speed Wind Dir Waves Ship Positions

Volgo-balt 229

Last reported at 2015-Mar-31 06:23 UTC. Time now 2015-Mar-31 06:46 UTC.
Position N 54°07' E 012°05'.

Length 113 m; draft 3.9 m.

Type: Ship. MMSI: 273336300.

Date/timePositionNaut miles runAvg speedWind from/ knotsBaromVisibWave heightAir tempDewpointWater temp
2015-Mar-31 06:23N 54°07' E 012°05'0 0.0
2015-Mar-31 05:31N 54°07' E 012°05'0 0.0
2015-Mar-31 04:13N 54°07' E 012°05'0 0.0
2015-Mar-31 03:10N 54°07' E 012°05'0 0.0
2015-Mar-31 02:13N 54°07' E 012°05'0 0.0
2015-Mar-31 00:28N 54°07' E 012°05'0 0.0
2015-Mar-30 23:28N 54°07' E 012°05'0 0.0
2015-Mar-30 22:28N 54°07' E 012°05'0 0.0
2015-Mar-30 20:31N 54°07' E 012°05'0 0.0
2015-Mar-30 19:28N 54°07' E 012°05'0 0.0
2015-Mar-30 18:31N 54°07' E 012°05'0 0.0
2015-Mar-30 17:22N 54°07' E 012°05'0 0.0
2015-Mar-30 16:28N 54°07' E 012°05'0 0.0
2015-Mar-30 14:31N 54°07' E 012°05'0 0.0
2015-Mar-30 13:28N 54°07' E 012°05'0 0.0
2015-Mar-30 12:28N 54°07' E 012°05'0 0.0
2015-Mar-30 11:28N 54°07' E 012°05'0 0.0
2015-Mar-30 10:07N 54°07' E 012°05'0 0.0
2015-Mar-30 09:14N 54°07' E 012°05'  
2015-Mar-26 15:18N 54°60' E 015°43'6 7.5
2015-Mar-26 14:33N 55°01' E 015°52'73 7.3
2015-Mar-26 04:32N 55°19' E 017°57'21 7.2
2015-Mar-26 01:33N 55°24' E 018°34'9 7.3
2015-Mar-26 00:17N 55°26' E 018°49'6 7.0
2015-Mar-25 23:30N 55°27' E 018°59'  
2015-Mar-23 11:27N 55°04' E 018°28'159 8.0
2015-Mar-22 15:31N 54°40' E 013°54'7 7.8
2015-Mar-22 14:33N 54°43' E 013°42'8 7.6
2015-Mar-22 13:33N 54°44' E 013°29'8 7.7
2015-Mar-22 12:33N 54°43' E 013°16'24 8.1
2015-Mar-22 09:33N 54°37' E 012°35'12 8.8
2015-Mar-22 08:12N 54°31' E 012°17'6 8.9
2015-Mar-22 07:33N 54°26' E 012°13'8 7.8
2015-Mar-22 06:33N 54°19' E 012°07'8 7.8
2015-Mar-22 05:33N 54°11' E 012°05'4 3.9
2015-Mar-22 04:31N 54°07' E 012°05'0 0.0
2015-Mar-22 03:31N 54°07' E 012°05'0 0.0
2015-Mar-22 02:31N 54°07' E 012°05'0 0.0
2015-Mar-22 01:31N 54°07' E 012°05'0 0.0
2015-Mar-22 00:33N 54°07' E 012°05'0 0.0
2015-Mar-21 23:30N 54°07' E 012°05'0 0.0
2015-Mar-21 22:33N 54°07' E 012°05'0 0.0
2015-Mar-21 21:33N 54°07' E 012°05'0 0.0
2015-Mar-21 20:18N 54°07' E 012°05'0 0.0
2015-Mar-21 18:15N 54°07' E 012°05'0 0.0
2015-Mar-21 17:33N 54°07' E 012°05'0 0.0
2015-Mar-21 16:33N 54°07' E 012°05'0 0.0
2015-Mar-21 15:33N 54°07' E 012°05'0 0.0
2015-Mar-21 14:33N 54°07' E 012°05'0 0.0
2015-Mar-21 13:30N 54°07' E 012°05'0 0.0
2015-Mar-21 12:06N 54°07' E 012°05'0 0.0
2015-Mar-21 11:33N 54°07' E 012°05'0 0.0
2015-Mar-21 10:33N 54°07' E 012°05'0 0.0
2015-Mar-21 09:33N 54°07' E 012°05'0 0.0
2015-Mar-21 08:33N 54°07' E 012°05'4 3.9
2015-Mar-21 07:30N 54°11' E 012°05'5 5.4
2015-Mar-21 06:32N 54°16' E 012°01'  

Dump ship's entire track history